This is the latest recevied weather packets stored in our database for station/object KY0TEQ-13. If no packets are shown the sender has not sent any weather packets the latest 10 day(s).
| Time | Temp. | Humidity | Pressure | Rain* | Wind** | Luminosity | Snow |
|---|---|---|---|---|---|---|---|
| 1777383541 | 2.78° C | 53% | 1303.5 hPa | 0 mm | - | 88 W/m² | - |
| 1777383239 | 1.67° C | 52% | 1303.4 hPa | 0 mm | - | 78 W/m² | - |
| 1777382935 | 1.67° C | 54% | 1303.3 hPa | 0 mm | - | 67 W/m² | - |
| 1777382630 | 1.11° C | 56% | 1303.3 hPa | 0 mm | - | 60 W/m² | - |
| 1777382327 | -0.56° C | 62% | 1303.3 hPa | 0 mm | - | 52 W/m² | - |
| 1777382023 | 0° C | 59% | 1303.2 hPa | 0 mm | - | 45 W/m² | - |
| 1777381719 | -0.56° C | 59% | 1302.9 hPa | 0 mm | - | 39 W/m² | - |
| 1777381413 | -1.11° C | 61% | 1302.8 hPa | 0 mm | - | 33 W/m² | - |
| 1777381110 | -2.22° C | 62% | 1302.8 hPa | 0 mm | - | 27 W/m² | - |
| 1777380807 | -1.67° C | 61% | 1302.4 hPa | 0 mm | - | 23 W/m² | - |
| 1777380504 | -1.67° C | 61% | 1302.4 hPa | 0 mm | - | 20 W/m² | - |
| 1777380201 | -2.22° C | 62% | 1302.6 hPa | 0 mm | - | 16 W/m² | - |
| 1777379897 | -2.22° C | 63% | 1302.1 hPa | 0 mm | - | 12 W/m² | - |
| 1777379592 | -2.22° C | 63% | 1302.3 hPa | 0 mm | - | 9 W/m² | - |
| 1777379289 | -2.22° C | 64% | 1302 hPa | 0 mm | - | 6 W/m² | - |
| 1777378988 | -2.22° C | 63% | 1302.2 hPa | 0 mm | - | 4 W/m² | - |
| 1777378684 | -2.22° C | 63% | 1302.2 hPa | 0 mm | - | 2 W/m² | - |
| 1777378380 | -2.78° C | 64% | 1302 hPa | 0 mm | - | 1 W/m² | - |
| 1777378075 | -2.22° C | 61% | 1302 hPa | 0 mm | - | 0 W/m² | - |
| 1777377770 | -3.33° C | 67% | 1302 hPa | 0 mm | - | 0 W/m² | - |
| 1777377464 | -3.33° C | 67% | 1301.7 hPa | 0 mm | - | 0 W/m² | - |
| 1777377160 | -2.78° C | 66% | 1301.7 hPa | 0 mm | - | 0 W/m² | - |
| 1777376857 | -2.78° C | 67% | 1301.6 hPa | 0 mm | - | 0 W/m² | - |
| 1777376555 | -2.22° C | 66% | 1301.6 hPa | 0 mm | - | 0 W/m² | - |
| 1777376252 | -3.33° C | 68% | 1301.5 hPa | 0 mm | - | 0 W/m² | - |
* Rain latest hour (hover to see other rain measurements)
** Current wind speed in m/s (hover to see current wind gust speed)